createdAt,value
2024-01-11T00:02:02.270Z,4.80
2024-01-11T00:04:28.742Z,4.88
2024-01-11T00:06:55.412Z,5.22
2024-01-11T00:09:21.937Z,4.72
2024-01-11T00:11:48.387Z,5.22
2024-01-11T00:14:14.873Z,5.20
2024-01-11T00:16:42.353Z,5.05
2024-01-11T00:19:08.862Z,5.28
2024-01-11T00:21:36.708Z,5.03
2024-01-11T00:24:04.320Z,4.30
2024-01-11T00:26:30.898Z,5.80
2024-01-11T00:28:57.352Z,4.80
2024-01-11T00:31:23.804Z,4.47
2024-01-11T00:33:50.286Z,4.55
2024-01-11T00:36:21.219Z,4.50
2024-01-11T00:38:47.665Z,5.25
2024-01-11T00:41:14.135Z,5.13
2024-01-11T00:43:40.658Z,4.60
2024-01-11T00:46:07.056Z,4.47
2024-01-11T00:48:33.563Z,4.75
2024-01-11T00:51:00.066Z,4.82
2024-01-11T00:53:31.592Z,5.38
2024-01-11T00:55:58.681Z,4.85
2024-01-11T00:58:25.137Z,4.93
2024-01-11T01:00:53.682Z,5.22
2024-01-11T01:03:22.182Z,4.65
2024-01-11T01:05:48.809Z,5.93
2024-01-11T01:10:42.234Z,3.80
2024-01-11T01:13:08.731Z,4.82
2024-01-11T01:15:35.221Z,4.75
2024-01-11T01:18:01.885Z,4.60
2024-01-11T01:20:28.771Z,4.57
2024-01-11T01:22:55.436Z,4.30
2024-01-11T01:25:22.101Z,4.97
2024-01-11T01:27:49.252Z,4.80
2024-01-11T01:30:15.777Z,5.22
2024-01-11T01:32:42.552Z,5.13
2024-01-11T01:35:09.292Z,4.68
2024-01-11T01:37:35.854Z,5.15
2024-01-11T01:40:02.341Z,5.35
2024-01-11T01:42:28.816Z,4.68
2024-01-11T01:44:55.288Z,4.47
2024-01-11T01:47:23.286Z,5.22
2024-01-11T01:49:50.750Z,5.32
2024-01-11T01:52:18.058Z,5.07
2024-01-11T01:54:44.674Z,5.50
2024-01-11T01:57:12.896Z,5.45
2024-01-11T01:59:40.766Z,4.80
2024-01-11T02:02:07.734Z,5.32
2024-01-11T02:04:34.625Z,4.97
2024-01-11T02:07:01.797Z,5.95
2024-01-11T02:09:29.291Z,5.30
2024-01-11T02:11:55.933Z,5.78
2024-01-11T02:14:22.431Z,4.80
2024-01-11T02:16:48.884Z,5.18
2024-01-11T02:19:18.606Z,4.90
2024-01-11T02:21:47.183Z,5.07
2024-01-11T02:24:14.280Z,5.28
2024-01-11T02:27:00.368Z,5.75
2024-01-11T02:29:27.951Z,5.82
2024-01-11T02:31:55.742Z,5.63
2024-01-11T02:34:23.619Z,4.43
2024-01-11T02:36:50.806Z,5.82
2024-01-11T02:39:18.727Z,6.15
2024-01-11T02:41:45.753Z,5.70
2024-01-11T02:44:12.339Z,5.50
2024-01-11T02:46:38.852Z,5.20
2024-01-11T02:49:05.432Z,5.95
2024-01-11T02:51:31.964Z,6.57
2024-01-11T02:53:59.030Z,5.10
2024-01-11T02:56:25.804Z,5.78
2024-01-11T03:01:18.694Z,5.13
2024-01-11T03:03:45.242Z,5.70
2024-01-11T03:06:11.752Z,5.88
2024-01-11T03:08:38.373Z,5.85
2024-01-11T03:11:05.274Z,6.15
2024-01-11T03:13:32.420Z,5.85
2024-01-11T03:15:58.852Z,6.35
2024-01-11T03:18:25.392Z,6.55
2024-01-11T03:20:52.368Z,6.60
2024-01-11T03:23:18.864Z,8.13
2024-01-11T03:25:45.344Z,7.57
2024-01-11T03:28:11.866Z,7.80
2024-01-11T03:30:38.369Z,6.32
2024-01-11T03:33:05.489Z,7.90
2024-01-11T03:35:32.160Z,7.68
2024-01-11T03:37:58.706Z,6.50
2024-01-11T03:40:25.133Z,6.82
2024-01-11T03:42:53.584Z,6.55
2024-01-11T03:45:22.630Z,7.40
2024-01-11T03:47:49.095Z,8.52
2024-01-11T03:50:15.674Z,8.40
2024-01-11T03:52:43.564Z,8.65
2024-01-11T03:55:10.060Z,8.15
2024-01-11T03:57:36.689Z,8.20
2024-01-11T04:00:03.562Z,8.65
2024-01-11T04:02:30.518Z,9.15
2024-01-11T04:04:57.112Z,8.68
2024-01-11T04:07:23.610Z,8.20
2024-01-11T04:09:50.036Z,9.05
2024-01-11T04:12:16.556Z,8.48
2024-01-11T04:14:43.163Z,9.10
2024-01-11T04:17:09.786Z,8.90
2024-01-11T04:19:36.335Z,8.48
2024-01-11T04:22:02.773Z,10.00
2024-01-11T04:24:29.243Z,9.27
2024-01-11T04:26:55.739Z,9.52
2024-01-11T04:29:22.348Z,10.25
2024-01-11T04:31:48.888Z,9.85
2024-01-11T04:34:15.712Z,9.38
2024-01-11T04:39:08.753Z,8.60
2024-01-11T04:41:38.114Z,10.43
2024-01-11T04:44:04.969Z,9.15
2024-01-11T04:48:57.869Z,8.73
2024-01-11T04:51:24.460Z,9.13
2024-01-11T04:53:50.878Z,9.68
2024-01-11T04:56:18.135Z,11.00
2024-01-11T04:58:46.310Z,9.32
2024-01-11T05:01:14.571Z,9.05
2024-01-11T05:03:41.387Z,9.25
2024-01-11T05:08:34.735Z,8.80
2024-01-11T05:11:01.347Z,9.82
2024-01-11T05:13:27.802Z,10.85
2024-01-11T05:15:54.251Z,9.75
2024-01-11T05:18:20.797Z,10.23
2024-01-11T05:20:47.365Z,9.77
2024-01-11T05:23:13.875Z,10.88
2024-01-11T05:25:40.495Z,11.07
2024-01-11T05:28:06.982Z,10.65
2024-01-11T05:30:34.307Z,10.85
2024-01-11T05:33:01.081Z,11.07
2024-01-11T05:37:58.466Z,9.48
2024-01-11T05:40:24.973Z,9.52
2024-01-11T05:42:51.429Z,11.00
2024-01-11T05:45:19.702Z,10.27
2024-01-11T05:47:49.004Z,10.55
2024-01-11T05:50:16.019Z,10.65
2024-01-11T05:52:43.421Z,10.82
2024-01-11T05:55:09.881Z,11.32
2024-01-11T05:57:36.520Z,11.25
2024-01-11T06:00:03.620Z,11.30
2024-01-11T06:02:30.143Z,11.63
2024-01-11T06:04:56.617Z,11.18
2024-01-11T06:07:23.145Z,10.93
2024-01-11T06:09:49.587Z,11.68
2024-01-11T06:12:16.408Z,10.68
2024-01-11T06:17:12.111Z,10.35
2024-01-11T06:19:39.594Z,10.02
2024-01-11T06:22:06.613Z,10.65
2024-01-11T06:26:59.401Z,10.88
2024-01-11T06:29:25.848Z,9.73
2024-01-11T06:31:52.711Z,11.15
2024-01-11T06:36:45.547Z,9.40
2024-01-11T06:39:13.628Z,11.20
2024-01-11T06:41:40.211Z,10.57
2024-01-11T06:44:06.747Z,11.13
2024-01-11T06:46:33.264Z,12.40
2024-01-11T06:48:59.819Z,11.48
2024-01-11T06:51:26.344Z,9.77
2024-01-11T06:53:52.812Z,10.82
2024-01-11T06:56:21.074Z,12.38
2024-01-11T06:58:48.026Z,11.50
2024-01-11T07:01:14.651Z,11.45
2024-01-11T07:03:41.210Z,11.43
2024-01-11T07:06:08.432Z,10.88
2024-01-11T07:08:35.996Z,11.18
2024-01-11T07:11:08.559Z,10.98
2024-01-11T07:13:35.025Z,11.35
2024-01-11T07:16:01.580Z,12.75
2024-01-11T07:18:28.217Z,11.32
2024-01-11T07:20:57.956Z,11.48
2024-01-11T07:23:24.417Z,12.07
2024-01-11T07:25:51.069Z,11.93
2024-01-11T07:28:18.450Z,11.18
2024-01-11T07:30:45.231Z,12.05
2024-01-11T07:35:38.518Z,9.93
2024-01-11T07:38:05.311Z,10.70
2024-01-11T07:43:02.492Z,10.27
2024-01-11T07:45:29.222Z,9.68
2024-01-11T07:47:55.700Z,11.45
2024-01-11T07:50:22.223Z,11.27
2024-01-11T07:52:48.735Z,10.35
2024-01-11T07:55:16.413Z,10.60
2024-01-11T07:57:43.026Z,12.00
2024-01-11T08:00:09.976Z,11.95
2024-01-11T08:05:04.045Z,9.95
2024-01-11T08:07:31.336Z,10.52
2024-01-11T08:09:57.777Z,11.98
2024-01-11T08:12:24.286Z,12.43
2024-01-11T08:14:50.803Z,11.00
2024-01-11T08:17:17.253Z,11.73
2024-01-11T08:19:43.918Z,11.80
2024-01-11T08:22:12.467Z,12.10
2024-01-11T08:24:39.493Z,12.27
2024-01-11T08:27:06.826Z,12.35
2024-01-11T08:29:34.240Z,12.25
2024-01-11T08:32:02.681Z,11.65
2024-01-11T08:34:32.958Z,11.90
2024-01-11T08:39:27.405Z,10.68
2024-01-11T08:41:53.884Z,11.63
2024-01-11T08:44:20.299Z,11.18
2024-01-11T08:46:46.753Z,12.85
2024-01-11T08:49:13.248Z,12.38
2024-01-11T08:51:39.790Z,11.90
2024-01-11T08:54:09.875Z,11.25
2024-01-11T08:56:41.212Z,10.60
2024-01-11T08:59:09.603Z,11.20
2024-01-11T09:01:37.024Z,11.93
2024-01-11T09:04:03.484Z,11.75
2024-01-11T09:06:30.597Z,12.63
2024-01-11T09:08:57.224Z,12.18
2024-01-11T09:11:23.681Z,10.95
2024-01-11T09:13:50.214Z,12.75
2024-01-11T09:16:17.924Z,12.40
2024-01-11T09:18:45.810Z,11.98
2024-01-11T09:21:13.372Z,10.68
2024-01-11T09:23:40.058Z,11.40
2024-01-11T09:28:32.982Z,10.50
2024-01-11T09:31:01.162Z,10.32
2024-01-11T09:33:27.930Z,10.93
2024-01-11T09:38:21.730Z,9.10
2024-01-11T09:41:00.932Z,9.85
2024-01-11T09:43:28.011Z,9.27
2024-01-11T09:45:55.638Z,11.13
2024-01-11T09:48:22.580Z,10.15
2024-01-11T09:50:50.546Z,9.80
2024-01-11T09:53:18.932Z,9.82
2024-01-11T09:55:45.445Z,9.35
2024-01-11T09:58:12.745Z,10.38
2024-01-11T10:00:57.742Z,10.00
2024-01-11T10:03:24.912Z,9.18
2024-01-11T10:05:54.831Z,10.93
2024-01-11T10:08:22.847Z,9.43
2024-01-11T10:10:49.428Z,10.05
2024-01-11T10:13:17.295Z,10.30
2024-01-11T10:15:44.934Z,8.65
2024-01-11T10:18:14.437Z,9.73
2024-01-11T10:20:41.146Z,9.88
2024-01-11T10:25:34.429Z,8.30
2024-01-11T10:28:00.886Z,8.65
2024-01-11T10:30:27.687Z,8.88
2024-01-11T10:32:58.340Z,8.35
2024-01-11T10:35:26.075Z,8.65
2024-01-11T10:37:55.344Z,9.20
2024-01-11T10:40:25.283Z,9.15
2024-01-11T10:42:52.887Z,9.68
2024-01-11T10:45:21.765Z,9.68
2024-01-11T10:47:54.493Z,9.50
2024-01-11T10:50:23.816Z,8.57
2024-01-11T10:53:03.799Z,9.80
2024-01-11T10:55:33.761Z,9.50
2024-01-11T10:58:02.605Z,9.73
2024-01-11T11:00:31.057Z,9.30
2024-01-11T11:03:01.077Z,9.45
2024-01-11T11:05:30.045Z,9.45
2024-01-11T11:07:56.901Z,8.25
2024-01-11T11:10:25.053Z,8.70
2024-01-11T11:12:54.924Z,9.05
2024-01-11T11:15:22.784Z,9.35
2024-01-11T11:17:51.387Z,8.35
2024-01-11T11:20:18.128Z,8.77
2024-01-11T11:23:03.638Z,9.45
2024-01-11T11:25:31.363Z,8.45
2024-01-11T11:28:01.081Z,8.02
2024-01-11T11:30:28.589Z,8.02
2024-01-11T11:32:55.793Z,8.88
2024-01-11T11:35:24.711Z,8.65
2024-01-11T11:37:56.448Z,8.68
2024-01-11T11:40:23.083Z,8.77
2024-01-11T11:45:26.549Z,8.30
2024-01-11T11:47:53.133Z,8.98
2024-01-11T11:50:23.701Z,9.95
2024-01-11T11:52:57.060Z,8.80
2024-01-11T11:55:27.695Z,8.50
2024-01-11T11:57:54.241Z,8.10
2024-01-11T12:02:48.860Z,8.85
2024-01-11T12:05:17.558Z,8.75
2024-01-11T12:07:44.185Z,9.43
2024-01-11T12:10:11.350Z,10.75
2024-01-11T12:12:38.152Z,24.98
2024-01-11T12:15:06.213Z,8.38
2024-01-11T12:17:32.835Z,9.30
2024-01-11T12:19:59.386Z,10.07
2024-01-11T12:22:25.892Z,9.70
2024-01-11T12:27:21.497Z,8.45
2024-01-11T12:29:53.061Z,7.07
2024-01-11T12:32:25.304Z,7.75
2024-01-11T12:34:52.825Z,8.15
2024-01-11T12:37:19.335Z,7.72
2024-01-11T12:39:46.457Z,7.53
2024-01-11T12:42:14.033Z,8.15
2024-01-11T12:44:41.590Z,8.18
2024-01-11T12:47:08.898Z,8.05
2024-01-11T12:49:35.834Z,8.60
2024-01-11T12:52:02.367Z,8.50
2024-01-11T12:54:28.817Z,9.07
2024-01-11T12:56:55.364Z,8.85
2024-01-11T13:01:52.513Z,8.15
2024-01-11T13:06:45.650Z,7.88
2024-01-11T13:11:39.151Z,7.95
2024-01-11T13:16:34.910Z,7.10
2024-01-11T13:21:30.033Z,13.07
2024-01-11T13:23:58.007Z,8.02
2024-01-11T13:26:24.586Z,7.60
2024-01-11T13:28:53.285Z,7.20
2024-01-11T13:31:19.729Z,7.22
2024-01-11T13:33:46.202Z,7.90
2024-01-11T13:38:39.406Z,7.75
2024-01-11T13:41:09.399Z,6.85
2024-01-11T13:43:36.181Z,7.53
2024-01-11T13:46:05.595Z,7.68
2024-01-11T13:48:35.473Z,6.80
2024-01-11T13:51:04.783Z,7.40
2024-01-11T13:53:31.988Z,7.65
2024-01-11T13:55:58.440Z,8.05
2024-01-11T13:58:27.414Z,8.38
2024-01-11T14:00:55.491Z,7.72
2024-01-11T14:03:23.256Z,7.25
2024-01-11T14:05:50.017Z,7.65
2024-01-11T14:08:16.647Z,8.15
2024-01-11T14:13:24.080Z,7.22
2024-01-11T14:15:52.052Z,7.25
2024-01-11T14:18:20.116Z,7.03
2024-01-11T14:20:47.012Z,6.97
2024-01-11T14:23:13.683Z,7.10
2024-01-11T14:25:41.699Z,6.35
2024-01-11T14:28:09.072Z,7.30
2024-01-11T14:30:36.108Z,7.03
2024-01-11T14:33:02.666Z,6.65
2024-01-11T14:37:55.742Z,6.80
2024-01-11T14:40:24.399Z,6.75
2024-01-11T14:42:51.783Z,7.35
2024-01-11T14:45:18.520Z,6.70
2024-01-11T14:47:45.080Z,6.90
2024-01-11T14:50:12.405Z,6.43
2024-01-11T14:52:42.284Z,6.47
2024-01-11T14:55:10.631Z,6.95
2024-01-11T14:57:38.254Z,8.27
2024-01-11T15:00:05.578Z,7.32
2024-01-11T15:02:35.561Z,7.15
2024-01-11T15:07:28.640Z,6.57
2024-01-11T15:09:55.157Z,7.95
2024-01-11T15:14:51.864Z,7.10
2024-01-11T15:17:21.350Z,7.80
2024-01-11T15:19:48.704Z,7.18
2024-01-11T15:22:15.249Z,7.57
2024-01-11T15:27:10.352Z,7.30
2024-01-11T15:29:36.910Z,6.68
2024-01-11T15:32:03.553Z,6.85
2024-01-11T15:34:30.203Z,7.28
2024-01-11T15:36:57.007Z,7.32
2024-01-11T15:39:28.265Z,7.75
2024-01-11T15:41:57.957Z,7.28
2024-01-11T15:44:27.226Z,7.57
2024-01-11T15:46:53.893Z,7.72
2024-01-11T15:51:46.736Z,6.82
2024-01-11T15:54:14.222Z,6.32
2024-01-11T15:56:40.807Z,6.70
2024-01-11T16:01:50.702Z,6.50
2024-01-11T16:04:23.964Z,6.68
2024-01-11T16:06:50.703Z,8.00
2024-01-11T16:09:22.872Z,7.22
2024-01-11T16:11:52.068Z,9.43
2024-01-11T16:14:18.796Z,7.75
2024-01-11T16:19:12.138Z,9.07
2024-01-11T16:21:38.897Z,7.60
2024-01-11T16:26:32.174Z,7.57
2024-01-11T16:28:58.717Z,7.07
2024-01-11T16:33:51.674Z,6.80
2024-01-11T16:38:44.947Z,6.50
2024-01-11T16:41:12.236Z,7.88
2024-01-11T16:43:39.065Z,9.35
2024-01-11T16:46:08.556Z,8.30
2024-01-11T16:48:35.132Z,9.57
2024-01-11T16:51:04.498Z,8.95
2024-01-11T16:53:31.378Z,9.77
2024-01-11T16:55:57.921Z,7.80
2024-01-11T17:00:50.913Z,6.93
2024-01-11T17:03:17.516Z,9.95
2024-01-11T17:05:44.216Z,6.78
2024-01-11T17:08:10.821Z,7.57
2024-01-11T17:10:38.819Z,7.03
2024-01-11T17:13:05.435Z,8.00
2024-01-11T17:17:58.414Z,8.43
2024-01-11T17:20:25.080Z,10.65
2024-01-11T17:25:19.615Z,7.65
2024-01-11T17:30:12.588Z,7.53
2024-01-11T17:32:39.522Z,7.55
2024-01-11T17:35:07.186Z,8.15
2024-01-11T17:37:33.807Z,8.77
2024-01-11T17:42:26.823Z,8.18
2024-01-11T17:44:53.581Z,7.93
2024-01-11T17:47:20.344Z,8.63
2024-01-11T17:49:47.058Z,8.80
2024-01-11T17:52:16.251Z,9.40
2024-01-11T17:54:42.924Z,10.48
2024-01-11T17:57:09.381Z,9.23
2024-01-11T17:59:35.903Z,11.60
2024-01-11T18:04:30.139Z,8.60
2024-01-11T18:06:56.695Z,8.90
2024-01-11T18:09:23.284Z,9.90
2024-01-11T18:14:17.319Z,8.63
2024-01-11T18:19:14.496Z,6.88
2024-01-11T18:21:41.683Z,7.95
2024-01-11T18:24:08.214Z,7.90
2024-01-11T18:29:02.265Z,7.25
2024-01-11T18:31:28.682Z,9.10
2024-01-11T18:33:56.220Z,9.40
2024-01-11T18:36:24.042Z,10.30
2024-01-11T18:38:53.255Z,9.25
2024-01-11T18:41:24.773Z,8.80
2024-01-11T18:43:51.343Z,9.10
2024-01-11T18:46:17.922Z,7.80
2024-01-11T18:48:45.065Z,7.95
2024-01-11T18:51:11.885Z,11.77
2024-01-11T18:53:38.507Z,11.20
2024-01-11T18:56:13.271Z,12.48
2024-01-11T18:58:39.718Z,10.27
2024-01-11T19:01:09.540Z,12.88
2024-01-11T19:03:39.768Z,12.85
2024-01-11T19:06:07.914Z,11.38
2024-01-11T19:08:35.199Z,11.00
2024-01-11T19:11:01.731Z,10.40
2024-01-11T19:15:55.102Z,8.77
2024-01-11T19:18:21.675Z,11.68
2024-01-11T19:20:53.879Z,33.83
2024-01-11T19:23:27.842Z,26.58
2024-01-11T19:25:56.167Z,17.27
2024-01-11T19:28:22.803Z,15.90
2024-01-11T19:30:49.316Z,23.55
2024-01-11T19:35:45.237Z,10.52
2024-01-11T19:38:13.452Z,12.32
2024-01-11T19:40:43.138Z,11.70
2024-01-11T19:43:10.321Z,17.65
2024-01-11T19:45:37.135Z,17.85
2024-01-11T19:48:04.193Z,15.48
2024-01-11T19:50:32.175Z,17.00
2024-01-11T19:52:58.648Z,16.25
2024-01-11T19:57:51.671Z,8.88
2024-01-11T20:02:44.522Z,8.73
2024-01-11T20:07:37.668Z,9.38
2024-01-11T20:10:04.462Z,9.45
2024-01-11T20:12:30.965Z,8.27
2024-01-11T20:14:57.394Z,8.70
2024-01-11T20:19:52.396Z,8.48
2024-01-11T20:22:20.289Z,8.55
2024-01-11T20:24:47.038Z,9.73
2024-01-11T20:27:13.578Z,7.78
2024-01-11T20:29:41.190Z,9.02
2024-01-11T20:32:07.881Z,10.00
2024-01-11T20:34:35.020Z,9.48
2024-01-11T20:37:01.952Z,8.70
2024-01-11T20:39:28.349Z,9.35
2024-01-11T20:41:57.037Z,8.43
2024-01-11T20:44:23.913Z,9.00
2024-01-11T20:46:50.389Z,8.93
2024-01-11T20:51:46.712Z,8.90
2024-01-11T20:54:13.674Z,9.45
2024-01-11T20:56:46.081Z,9.70
2024-01-11T20:59:12.905Z,10.30
2024-01-11T21:01:40.640Z,9.80
2024-01-11T21:04:07.399Z,10.45
2024-01-11T21:06:34.095Z,12.00
2024-01-11T21:09:04.577Z,11.68
2024-01-11T21:11:38.474Z,11.50
2024-01-11T21:14:19.437Z,11.63
2024-01-11T21:16:46.991Z,12.48
2024-01-11T21:19:13.543Z,14.98
2024-01-11T21:21:44.999Z,11.75
2024-01-11T21:24:11.408Z,11.35
2024-01-11T21:29:18.001Z,9.07
2024-01-11T21:31:44.565Z,8.40
2024-01-11T21:36:37.681Z,8.93
2024-01-11T21:39:04.422Z,9.93
2024-01-11T21:41:34.756Z,9.77
2024-01-11T21:44:01.456Z,9.70
2024-01-11T21:46:28.449Z,10.85
2024-01-11T21:48:55.261Z,10.40
2024-01-11T21:51:21.864Z,10.15
2024-01-11T21:53:48.428Z,9.68
2024-01-11T21:56:14.938Z,10.20
2024-01-11T21:58:41.425Z,10.30
2024-01-11T22:03:37.160Z,10.82
2024-01-11T22:06:04.596Z,11.30
2024-01-11T22:08:31.516Z,11.65
2024-01-11T22:10:58.040Z,11.05
2024-01-11T22:15:50.709Z,10.82
2024-01-11T22:20:44.345Z,9.05
2024-01-11T22:23:10.988Z,8.82
2024-01-11T22:28:04.125Z,8.15
2024-01-11T22:30:30.790Z,7.93
2024-01-11T22:32:57.671Z,8.18
2024-01-11T22:35:24.245Z,7.15
2024-01-11T22:40:18.608Z,6.18
2024-01-11T22:42:45.138Z,6.60
2024-01-11T22:47:38.139Z,6.70
2024-01-11T22:50:05.297Z,6.28
2024-01-11T22:52:31.917Z,6.55
2024-01-11T22:57:24.696Z,5.10
2024-01-11T22:59:51.282Z,5.93
2024-01-11T23:02:17.847Z,5.40
2024-01-11T23:04:44.295Z,5.45
2024-01-11T23:09:37.734Z,5.00
2024-01-11T23:12:06.712Z,5.45
2024-01-11T23:14:33.449Z,5.45
2024-01-11T23:17:00.069Z,5.43
2024-01-11T23:19:27.849Z,5.22
2024-01-11T23:21:54.355Z,5.82
2024-01-11T23:26:47.122Z,4.80
2024-01-11T23:31:40.119Z,4.95
2024-01-11T23:34:06.684Z,5.10
2024-01-11T23:36:33.337Z,4.72
2024-01-11T23:38:59.745Z,5.03
2024-01-11T23:43:52.630Z,4.47
2024-01-11T23:48:45.659Z,4.70
2024-01-11T23:51:12.260Z,5.30
2024-01-11T23:53:38.786Z,5.75
2024-01-11T23:58:32.073Z,4.75
